Crane Naval Depot, Indiana
Current Conditions -  °F | °C
As of 4:15 PM on Friday 24 Oct 2014 (Local Time) from KDCY Reporting Station
Haze Haze  
Wind Chill: 68°   Ceiling: Unl
Heat Index: 68°   Visibility: 2mi
Dew Point: 53°   Wind: 6mph
Humidity: 60%   Direction: 230°SW
Pressure: 30.03"   Gusts: NA
Location:  38.8381°N, 86.8142°W
Report Text: KDCY 242115Z AUTO 23005KT 2SM HZ SCT039 20/12 A3003 RMK AO2 VIS 1/2V5 T01990119
Loading
Personal Weather Stations






























Interactive Weather Map
Tropical Storm Tracking
New forecast layout! Learn more

10-Day Weather Forecast

Advertisements
Track Severe Weather on mobile